Time;durP1;ratioP1;P1;durP2;ratioP2;P2;SDS_P1;SDS_P2;PMS_P1;PMS_P2;Temp;Humidity;BMP_temperature;BMP_pressure;BME280_temperature;BME280_humidity;BME280_pressure;Samples;Min_cycle;Max_cycle;Signal;HPM_P1;HPM_P2
2023/06/12 00:01:05;;;;;;;7.82;2.78;;;19.50;83.60;;;;;;5103630;27;20405;-76
2023/06/12 00:03:31;;;;;;;7.68;3.40;;;19.40;83.60;;;;;;5090503;27;20059;-76
2023/06/12 00:05:58;;;;;;;10.20;2.88;;;19.40;83.80;;;;;;5092523;28;20035;-76
2023/06/12 00:08:30;;;;;;;9.23;2.80;;;19.40;83.90;;;;;;5106744;28;20035;-76
2023/06/12 00:10:57;;;;;;;10.20;2.65;;;19.30;83.90;;;;;;5097168;27;20062;-77
2023/06/12 00:13:23;;;;;;;9.43;3.15;;;19.20;84.00;;;;;;5109662;28;20382;-75
2023/06/12 00:15:49;;;;;;;8.40;2.63;;;19.20;84.00;;;;;;5102333;27;20123;-76
2023/06/12 00:18:15;;;;;;;11.45;2.90;;;19.20;84.20;;;;;;5107347;27;20036;-75
2023/06/12 00:20:41;;;;;;;6.13;2.58;;;19.10;84.60;;;;;;5113187;27;20085;-75
2023/06/12 00:23:12;;;;;;;8.90;2.85;;;19.10;84.60;;;;;;5083597;28;20456;-77
2023/06/12 00:25:39;;;;;;;5.13;2.72;;;19.00;84.70;;;;;;5099523;28;20079;-77
2023/06/12 00:28:05;;;;;;;6.25;2.80;;;19.00;84.90;;;;;;5089178;28;20119;-76
2023/06/12 00:30:31;;;;;;;13.00;3.17;;;18.90;85.10;;;;;;5120218;27;20545;-77
2023/06/12 00:32:57;;;;;;;4.72;2.45;;;18.90;85.10;;;;;;5104948;28;20047;-77
2023/06/12 00:35:23;;;;;;;6.50;3.10;;;18.90;85.30;;;;;;5101408;27;20393;-77
2023/06/12 00:37:50;;;;;;;10.70;2.85;;;18.90;85.60;;;;;;5117141;27;20044;-75
2023/06/12 00:40:16;;;;;;;7.47;3.20;;;18.80;85.60;;;;;;5107150;28;20092;-77
2023/06/12 00:42:49;;;;;;;10.13;3.45;;;18.80;85.70;;;;;;5101092;28;20031;-77
2023/06/12 00:45:17;;;;;;;11.32;2.75;;;18.70;86.00;;;;;;5097736;27;20052;-76
2023/06/12 00:47:45;;;;;;;7.15;2.65;;;18.70;86.20;;;;;;5091096;28;20089;-76
2023/06/12 00:50:14;;;;;;;4.82;2.65;;;18.60;86.40;;;;;;5092835;28;20067;-76
2023/06/12 00:52:46;;;;;;;14.25;3.28;;;18.70;86.90;;;;;;5108179;27;20044;-76
2023/06/12 00:55:14;;;;;;;6.88;2.72;;;18.60;86.90;;;;;;5096328;27;20048;-75
2023/06/12 00:57:41;;;;;;;7.30;2.92;;;18.50;87.10;;;;;;5109562;28;20050;-76
2023/06/12 01:00:09;;;;;;;7.45;2.67;;;18.50;87.50;;;;;;5084854;28;20040;-77
2023/06/12 01:02:42;;;;;;;7.95;3.03;;;18.40;87.90;;;;;;5105770;28;20039;-77
2023/06/12 01:05:19;;;;;;;8.73;3.15;;;18.30;87.70;;;;;;5065287;28;20067;-76
2023/06/12 01:08:16;;;;;;;7.70;2.80;;;18.30;88.00;;;;;;5122308;27;20484;-76
2023/06/12 01:11:04;;;;;;;7.70;2.90;;;18.30;88.80;;;;;;5089575;28;20546;-76
2023/06/12 01:13:30;;;;;;;6.47;3.00;;;18.20;88.60;;;;;;5079668;28;20040;-76
2023/06/12 01:15:55;;;;;;;17.63;2.92;;;18.20;88.80;;;;;;5083097;28;20047;-78
2023/06/12 01:18:22;;;;;;;9.50;3.00;;;18.10;89.10;;;;;;5125434;27;20047;-76
2023/06/12 01:20:53;;;;;;;5.53;3.05;;;18.10;89.40;;;;;;5104908;28;20055;-76
2023/06/12 01:23:37;;;;;;;7.85;2.90;;;18.10;89.70;;;;;;5089413;28;20047;-77
2023/06/12 01:26:37;;;;;;;12.82;2.92;;;18.10;90.20;;;;;;5105937;28;20054;-78
2023/06/12 01:29:11;;;;;;;4.65;2.95;;;18.00;90.40;;;;;;5085332;28;20043;-76
2023/06/12 01:32:02;;;;;;;5.60;3.10;;;17.90;90.30;;;;;;5102761;28;20043;-76
2023/06/12 01:34:56;;;;;;;9.05;2.88;;;18.00;90.80;;;;;;5104643;27;20435;-76
2023/06/12 01:37:25;;;;;;;8.20;2.83;;;18.00;91.00;;;;;;5093773;27;20422;-74
2023/06/12 01:39:58;;;;;;;5.32;2.92;;;17.90;91.10;;;;;;5090365;28;20059;-75
2023/06/12 01:42:28;;;;;;;8.48;3.15;;;17.90;91.60;;;;;;5088274;28;20048;-76
2023/06/12 01:44:54;;;;;;;7.22;3.30;;;17.90;91.50;;;;;;5116873;27;20470;-76
2023/06/12 01:47:20;;;;;;;5.47;2.65;;;17.80;91.50;;;;;;5115114;27;20070;-76
2023/06/12 01:49:46;;;;;;;7.43;2.90;;;17.90;91.70;;;;;;5089389;27;20035;-76
2023/06/12 01:52:12;;;;;;;9.85;3.10;;;17.80;91.90;;;;;;5103761;28;20052;-77
2023/06/12 01:54:38;;;;;;;7.85;3.50;;;17.80;91.80;;;;;;5099977;28;20055;-76
2023/06/12 01:57:08;;;;;;;12.98;3.97;;;17.70;92.10;;;;;;5101581;28;20040;-77
2023/06/12 01:59:34;;;;;;;13.70;3.60;;;17.70;92.30;;;;;;5066936;28;20054;-76
2023/06/12 02:02:01;;;;;;;8.63;3.80;;;17.60;92.50;;;;;;5107438;28;20122;-76
2023/06/12 02:04:28;;;;;;;17.17;4.65;;;17.60;92.70;;;;;;5102563;28;20036;-77
2023/06/12 02:06:54;;;;;;;7.97;3.80;;;17.50;92.90;;;;;;5083452;28;20071;-77
2023/06/12 02:09:20;;;;;;;15.00;3.85;;;17.50;93.00;;;;;;5103389;28;20078;-75
2023/06/12 02:11:45;;;;;;;6.88;3.53;;;17.50;93.20;;;;;;5086633;28;20059;-76
2023/06/12 02:14:11;;;;;;;9.02;3.67;;;17.50;93.30;;;;;;5090098;28;20080;-76
2023/06/12 02:16:37;;;;;;;8.20;3.42;;;17.40;93.70;;;;;;5104720;28;20171;-76
2023/06/12 02:19:02;;;;;;;8.82;3.80;;;17.40;93.60;;;;;;5107063;28;20157;-77
2023/06/12 02:21:29;;;;;;;7.63;2.92;;;17.30;93.80;;;;;;5104136;28;20031;-76
2023/06/12 02:23:55;;;;;;;6.85;2.95;;;17.30;94.10;;;;;;5096469;28;20096;-76
2023/06/12 02:26:23;;;;;;;8.35;3.00;;;17.30;94.20;;;;;;5107822;28;20548;-77
2023/06/12 02:29:13;;;;;;;8.65;3.17;;;17.20;94.40;;;;;;5104092;28;20173;-77
2023/06/12 02:31:38;;;;;;;10.38;3.20;;;17.30;94.90;;;;;;5106823;28;20140;-76
2023/06/12 02:34:04;;;;;;;9.90;3.00;;;17.20;94.80;;;;;;5120320;28;21545;-76
2023/06/12 02:36:30;;;;;;;12.98;3.28;;;17.20;95.00;;;;;;5102361;28;20131;-76
2023/06/12 02:38:56;;;;;;;7.10;2.83;;;17.20;95.30;;;;;;5112272;28;20537;-76
2023/06/12 02:41:22;;;;;;;13.50;3.28;;;17.20;95.20;;;;;;5087593;28;20036;-75
2023/06/12 02:43:48;;;;;;;8.13;3.15;;;17.10;95.50;;;;;;5099337;28;20044;-75
2023/06/12 02:46:14;;;;;;;5.50;2.95;;;17.10;96.00;;;;;;5090419;28;20051;-76
2023/06/12 02:48:40;;;;;;;7.13;3.42;;;17.10;96.00;;;;;;5101406;28;20040;-77
2023/06/12 02:51:07;;;;;;;7.78;3.15;;;17.00;96.10;;;;;;5092310;28;20031;-75
2023/06/12 02:53:33;;;;;;;8.80;3.13;;;17.00;96.30;;;;;;5116157;27;20054;-76
2023/06/12 02:55:59;;;;;;;8.27;3.67;;;17.10;96.60;;;;;;5100741;28;20752;-77
2023/06/12 02:58:24;;;;;;;8.18;3.10;;;17.00;96.90;;;;;;5104174;28;20082;-75
2023/06/12 03:00:51;;;;;;;9.48;3.30;;;16.90;97.10;;;;;;5080361;28;20089;-76
2023/06/12 03:03:20;;;;;;;7.07;3.10;;;16.90;97.10;;;;;;5103699;27;20036;-76
2023/06/12 03:05:46;;;;;;;9.85;3.25;;;16.90;97.40;;;;;;5086351;28;20312;-76
2023/06/12 03:08:16;;;;;;;10.45;3.50;;;16.90;97.70;;;;;;5104343;28;20036;-76
2023/06/12 03:10:42;;;;;;;6.28;3.25;;;16.80;97.80;;;;;;5093872;28;20048;-77
2023/06/12 03:13:08;;;;;;;10.95;3.58;;;16.80;98.00;;;;;;5101477;28;20118;-75
2023/06/12 03:15:34;;;;;;;9.82;3.40;;;16.70;98.30;;;;;;5083397;28;20126;-76
2023/06/12 03:18:00;;;;;;;9.18;3.40;;;16.80;98.50;;;;;;5108163;28;20469;-76
2023/06/12 03:20:26;;;;;;;8.25;3.40;;;16.70;98.90;;;;;;5111240;28;20047;-75
2023/06/12 03:22:52;;;;;;;12.73;3.65;;;16.70;99.00;;;;;;5105035;28;20048;-77
2023/06/12 03:25:20;;;;;;;5.68;3.28;;;16.80;99.10;;;;;;5106607;28;20055;-76
2023/06/12 03:27:46;;;;;;;;;;;16.70;99.40;;;;;;5089573;28;20050;-75
2023/06/12 03:30:12;;;;;;;7.85;4.10;;;16.70;99.90;;;;;;5101638;28;20283;-77
2023/06/12 03:32:38;;;;;;;9.63;3.75;;;16.60;99.80;;;;;;5125338;27;20032;-76
2023/06/12 03:35:04;;;;;;;8.10;3.90;;;17.00;99.90;;;;;;5119019;27;20098;-77
2023/06/12 03:37:30;;;;;;;12.55;3.80;;;16.60;99.90;;;;;;5120151;27;20405;-76
2023/06/12 03:39:55;;;;;;;7.68;3.80;;;16.60;99.90;;;;;;5093592;28;20032;-76
2023/06/12 03:42:21;;;;;;;8.02;3.40;;;16.60;99.90;;;;;;5110813;27;20084;-75
2023/06/12 03:44:47;;;;;;;6.75;3.90;;;16.60;99.90;;;;;;5080364;28;20036;-75
2023/06/12 03:47:14;;;;;;;12.52;3.85;;;16.60;99.90;;;;;;5116368;27;20485;-75
2023/06/12 03:49:40;;;;;;;11.50;3.72;;;16.60;99.90;;;;;;5105836;28;20409;-76
2023/06/12 03:52:06;;;;;;;9.05;4.22;;;16.60;99.90;;;;;;5098358;27;20044;-77
2023/06/12 03:54:32;;;;;;;8.20;4.05;;;16.50;99.90;;;;;;5086266;27;20501;-75
2023/06/12 03:56:58;;;;;;;9.27;3.95;;;16.50;99.90;;;;;;5080094;28;20122;-76
2023/06/12 03:59:24;;;;;;;7.15;3.72;;;16.50;99.90;;;;;;5112309;27;20062;-77
2023/06/12 04:01:52;;;;;;;8.02;3.90;;;16.50;99.90;;;;;;5066687;28;20094;-76
2023/06/12 04:04:18;;;;;;;9.68;4.28;;;16.50;99.90;;;;;;5084570;28;20044;-77
2023/06/12 04:06:45;;;;;;;11.55;4.78;;;16.50;99.90;;;;;;5108592;28;20048;-76
2023/06/12 04:09:17;;;;;;;12.57;4.07;;;16.50;99.90;;;;;;5080187;28;20063;-76
2023/06/12 04:11:43;;;;;;;7.70;3.63;;;16.50;99.90;;;;;;5100886;28;20149;-75
2023/06/12 04:14:09;;;;;;;5.53;3.70;;;16.50;99.90;;;;;;5091004;28;20051;-75
2023/06/12 04:16:35;;;;;;;8.73;4.28;;;16.50;99.90;;;;;;5105791;27;20032;-75
2023/06/12 04:19:04;;;;;;;11.65;4.45;;;16.50;99.90;;;;;;5107077;27;20417;-75
2023/06/12 04:21:33;;;;;;;9.25;4.15;;;16.50;99.90;;;;;;5104625;27;20058;-74
2023/06/12 04:24:03;;;;;;;14.90;4.10;;;16.50;99.90;;;;;;5104490;28;20398;-77
2023/06/12 04:26:34;;;;;;;7.22;3.80;;;16.50;99.90;;;;;;5091837;28;20058;-76
2023/06/12 04:29:02;;;;;;;14.20;4.60;;;16.50;99.90;;;;;;5080340;28;20058;-77
2023/06/12 04:31:28;;;;;;;7.30;4.07;;;16.50;99.90;;;;;;5091735;28;20136;-76
2023/06/12 04:33:54;;;;;;;11.52;4.22;;;16.50;99.90;;;;;;5106771;27;20035;-76
2023/06/12 04:36:21;;;;;;;10.98;3.85;;;16.60;99.90;;;;;;5116320;27;20124;-76
2023/06/12 04:38:50;;;;;;;9.30;4.03;;;16.60;99.90;;;;;;5082210;28;20047;-76
2023/06/12 04:41:20;;;;;;;17.67;4.72;;;16.60;99.90;;;;;;5102086;28;20358;-77
2023/06/12 04:43:49;;;;;;;11.30;4.10;;;16.70;99.90;;;;;;5103346;27;20036;-76
2023/06/12 04:46:18;;;;;;;14.27;4.57;;;16.80;99.90;;;;;;5110158;28;20400;-76
2023/06/12 04:48:44;;;;;;;8.80;4.28;;;16.70;99.90;;;;;;5098451;28;20040;-75
2023/06/12 04:51:09;;;;;;;10.52;4.45;;;16.80;99.90;;;;;;5100835;28;20040;-76
2023/06/12 04:53:39;;;;;;;5.78;3.53;;;16.80;99.90;;;;;;5107708;27;20108;-77
2023/06/12 04:56:08;;;;;;;9.00;3.88;;;16.90;99.90;;;;;;5103549;28;20401;-77
2023/06/12 04:58:40;;;;;;;8.52;4.38;;;17.00;99.90;;;;;;5093881;28;20064;-78
2023/06/12 05:01:06;;;;;;;9.10;3.92;;;17.10;99.90;;;;;;5091824;28;20043;-76
2023/06/12 05:03:33;;;;;;;14.57;4.45;;;17.00;99.90;;;;;;5097018;28;20129;-76
2023/06/12 05:06:00;;;;;;;8.07;4.30;;;17.20;99.90;;;;;;5097788;28;20047;-76
2023/06/12 05:08:25;;;;;;;9.07;4.13;;;17.20;99.90;;;;;;5092851;27;20042;-76
2023/06/12 05:10:52;;;;;;;9.15;4.43;;;17.30;99.90;;;;;;5102171;28;20393;-75
2023/06/12 05:13:17;;;;;;;12.52;5.25;;;17.40;99.90;;;;;;5100732;28;20039;-74
2023/06/12 05:15:43;;;;;;;17.48;4.97;;;17.50;99.90;;;;;;5097175;28;20035;-76
2023/06/12 05:18:08;;;;;;;8.50;4.20;;;17.60;99.90;;;;;;5096357;28;20111;-76
2023/06/12 05:20:34;;;;;;;9.25;4.50;;;17.70;99.90;;;;;;5109210;28;20043;-75
2023/06/12 05:23:00;;;;;;;10.85;4.80;;;17.70;99.90;;;;;;5082999;28;20048;-76
2023/06/12 05:25:25;;;;;;;9.70;4.18;;;17.70;99.90;;;;;;5114932;27;20051;-76
2023/06/12 05:27:51;;;;;;;12.32;4.43;;;17.80;99.90;;;;;;5098837;28;20043;-75
2023/06/12 05:30:17;;;;;;;11.02;4.30;;;17.80;99.90;;;;;;5085362;28;20413;-75
2023/06/12 05:32:42;;;;;;;8.23;4.20;;;17.90;99.90;;;;;;5098653;28;20371;-76
2023/06/12 05:35:08;;;;;;;10.68;4.40;;;18.10;99.90;;;;;;5102882;28;20043;-76
2023/06/12 05:37:34;;;;;;;13.90;4.45;;;18.20;99.90;;;;;;5102208;28;20477;-75
2023/06/12 05:40:00;;;;;;;9.73;4.78;;;18.40;99.90;;;;;;5105596;28;20139;-76
2023/06/12 05:42:26;;;;;;;10.43;4.60;;;18.50;99.90;;;;;;5106522;27;20028;-74
2023/06/12 05:44:51;;;;;;;7.22;4.25;;;18.60;99.90;;;;;;5097218;28;20040;-75
2023/06/12 05:47:17;;;;;;;9.80;4.95;;;18.70;99.90;;;;;;5111250;28;20442;-75
2023/06/12 05:49:42;;;;;;;10.60;4.75;;;18.80;99.90;;;;;;5102220;28;20050;-75
2023/06/12 05:52:10;;;;;;;16.58;4.40;;;19.00;99.90;;;;;;5096143;28;20039;-75
2023/06/12 05:54:36;;;;;;;14.70;4.93;;;19.20;99.90;;;;;;5099681;28;20040;-76
2023/06/12 05:57:04;;;;;;;14.75;4.70;;;19.60;99.90;;;;;;5106580;28;20039;-76
2023/06/12 05:59:30;;;;;;;13.52;4.57;;;19.90;99.90;;;;;;5102105;28;20051;-77
2023/06/12 06:01:56;;;;;;;11.55;4.60;;;20.10;99.90;;;;;;5099722;28;20047;-76
2023/06/12 06:04:22;;;;;;;10.70;4.50;;;20.30;99.90;;;;;;5085286;28;20466;-76
2023/06/12 06:06:47;;;;;;;13.13;4.22;;;20.40;99.90;;;;;;5100929;28;20481;-76
2023/06/12 06:09:16;;;;;;;10.75;4.22;;;20.80;99.90;;;;;;5095212;28;20036;-76
2023/06/12 06:11:42;;;;;;;11.00;4.20;;;21.10;99.70;;;;;;5119701;28;20047;-76
2023/06/12 06:14:07;;;;;;;13.90;4.60;;;21.40;99.30;;;;;;5109993;28;20408;-76
2023/06/12 06:16:33;;;;;;;11.85;4.82;;;21.80;98.70;;;;;;5098561;27;20043;-77
2023/06/12 06:18:59;;;;;;;13.50;5.20;;;21.70;98.00;;;;;;5113509;28;20044;-75
2023/06/12 06:21:24;;;;;;;9.77;4.50;;;21.50;98.10;;;;;;5117632;28;20039;-77
2023/06/12 06:23:50;;;;;;;13.73;4.95;;;21.40;98.20;;;;;;5107667;27;20531;-76
2023/06/12 06:26:16;;;;;;;10.50;4.22;;;21.10;98.20;;;;;;5103846;27;20106;-76
2023/06/12 06:28:41;;;;;;;8.15;4.65;;;21.00;98.50;;;;;;5107732;27;20043;-76
2023/06/12 06:31:07;;;;;;;8.63;4.03;;;20.90;98.50;;;;;;5102562;27;20051;-78
2023/06/12 06:33:33;;;;;;;11.05;4.25;;;20.80;98.70;;;;;;5120321;27;20035;-76
2023/06/12 06:35:59;;;;;;;13.05;4.75;;;20.80;98.90;;;;;;5103457;27;20036;-77
2023/06/12 06:38:25;;;;;;;13.23;4.30;;;20.90;98.80;;;;;;5114643;28;20439;-76
2023/06/12 06:40:54;;;;;;;10.13;3.97;;;20.90;98.90;;;;;;5109288;27;20104;-77
2023/06/12 06:43:20;;;;;;;11.18;4.15;;;21.00;99.00;;;;;;5110083;27;20055;-76
2023/06/12 06:45:48;;;;;;;14.20;4.55;;;21.00;99.00;;;;;;5113079;28;20043;-76
2023/06/12 06:48:13;;;;;;;;;;;21.20;99.10;;;;;;5107119;28;20046;-76
2023/06/12 06:50:43;;;;;;;7.53;4.35;;;21.30;98.20;;;;;;5117229;28;19919;-75
2023/06/12 06:53:08;;;;;;;11.02;3.90;;;21.30;98.10;;;;;;5112851;28;20131;-77
2023/06/12 06:55:34;;;;;;;11.13;4.82;;;21.40;98.10;;;;;;5090644;28;20169;-76
2023/06/12 06:58:00;;;;;;;12.25;4.35;;;21.50;98.10;;;;;;5080608;28;20100;-76
2023/06/12 07:00:27;;;;;;;12.40;4.57;;;21.60;97.90;;;;;;5104276;28;20036;-76
2023/06/12 07:02:53;;;;;;;10.13;4.57;;;21.70;97.80;;;;;;5105733;28;20036;-77
2023/06/12 07:05:18;;;;;;;12.48;4.90;;;21.70;97.40;;;;;;5106832;28;20043;-77
2023/06/12 07:07:46;;;;;;;10.45;5.20;;;21.70;97.40;;;;;;5105192;27;20046;-77
2023/06/12 07:10:11;;;;;;;11.02;5.10;;;21.80;97.80;;;;;;5109693;27;20055;-76
2023/06/12 07:12:37;;;;;;;13.88;4.85;;;21.80;97.40;;;;;;5116660;28;20481;-76
2023/06/12 07:15:03;;;;;;;21.95;5.10;;;21.80;97.40;;;;;;5099286;27;20043;-76
2023/06/12 07:17:29;;;;;;;14.48;4.18;;;22.00;97.50;;;;;;5071623;28;20123;-76
2023/06/12 07:19:55;;;;;;;12.57;4.68;;;22.10;97.40;;;;;;5079810;28;20363;-76
2023/06/12 07:22:21;;;;;;;9.02;4.55;;;22.20;97.00;;;;;;5121070;27;20110;-76
2023/06/12 07:24:47;;;;;;;14.23;4.50;;;22.20;96.90;;;;;;5109093;27;20040;-76
2023/06/12 07:27:12;;;;;;;8.63;4.60;;;22.40;96.60;;;;;;5105568;28;20040;-77
2023/06/12 07:29:38;;;;;;;12.20;4.32;;;22.40;96.30;;;;;;5097358;28;20036;-76
2023/06/12 07:32:04;;;;;;;8.40;4.38;;;22.50;96.40;;;;;;5110445;27;20131;-75
2023/06/12 07:34:30;;;;;;;10.80;4.63;;;22.60;96.20;;;;;;5114032;27;20052;-76
2023/06/12 07:36:58;;;;;;;12.13;4.70;;;22.60;96.10;;;;;;5113280;28;20049;-77
2023/06/12 07:39:24;;;;;;;9.82;4.85;;;22.70;96.10;;;;;;5116440;28;20112;-77
2023/06/12 07:41:50;;;;;;;11.23;4.55;;;22.80;95.90;;;;;;5098966;28;20404;-77
2023/06/12 07:44:15;;;;;;;10.80;4.70;;;22.80;95.90;;;;;;5097986;28;20047;-77
2023/06/12 07:46:42;;;;;;;10.80;4.30;;;22.90;95.70;;;;;;5105219;28;20459;-76
2023/06/12 07:49:08;;;;;;;6.73;4.27;;;23.10;95.80;;;;;;5101558;28;20043;-77
2023/06/12 07:51:34;;;;;;;12.27;4.88;;;23.30;95.80;;;;;;5108556;28;20044;-76
2023/06/12 07:54:00;;;;;;;12.35;4.72;;;23.40;95.50;;;;;;5078386;28;20505;-76
2023/06/12 07:56:27;;;;;;;13.77;4.40;;;23.40;95.40;;;;;;5107616;28;20062;-77
2023/06/12 07:58:52;;;;;;;9.95;4.97;;;23.60;95.30;;;;;;5112197;27;20100;-78
2023/06/12 08:01:18;;;;;;;10.55;5.20;;;23.60;94.80;;;;;;5083824;27;20422;-76
2023/06/12 08:03:45;;;;;;;12.82;4.65;;;23.70;94.70;;;;;;5104559;27;20044;-77
2023/06/12 08:06:13;;;;;;;9.25;4.78;;;23.70;94.70;;;;;;5115702;27;20044;-76
2023/06/12 08:08:40;;;;;;;17.10;5.03;;;23.80;94.20;;;;;;5114633;28;20482;-77
2023/06/12 08:11:07;;;;;;;9.80;5.30;;;23.70;94.40;;;;;;5082003;28;20127;-78
2023/06/12 08:13:32;;;;;;;14.25;4.88;;;23.80;94.50;;;;;;5084722;27;20058;-76
2023/06/12 08:15:58;;;;;;;9.10;5.15;;;23.90;94.60;;;;;;5108691;28;20039;-77
2023/06/12 08:18:23;;;;;;;14.48;5.13;;;24.00;94.60;;;;;;5116646;27;20040;-76
2023/06/12 08:20:50;;;;;;;7.63;4.63;;;24.20;94.50;;;;;;5088052;28;20089;-78
2023/06/12 08:23:16;;;;;;;14.45;5.03;;;24.30;94.20;;;;;;5094080;28;20105;-77
2023/06/12 08:25:43;;;;;;;11.00;4.82;;;24.40;94.20;;;;;;5124155;27;20128;-77
2023/06/12 08:28:09;;;;;;;13.07;5.45;;;24.50;94.00;;;;;;5110560;28;20044;-77
2023/06/12 08:30:34;;;;;;;8.60;4.57;;;24.60;94.10;;;;;;5092608;27;20046;-76
2023/06/12 08:33:00;;;;;;;11.35;4.80;;;24.60;93.90;;;;;;5109118;27;20044;-77
2023/06/12 08:35:26;;;;;;;17.55;4.80;;;24.70;93.80;;;;;;5105834;27;20039;-74
2023/06/12 08:37:51;;;;;;;13.10;5.03;;;24.80;93.80;;;;;;5108450;27;20039;-77
2023/06/12 08:40:17;;;;;;;13.48;5.32;;;25.00;93.70;;;;;;5114517;27;20482;-76
2023/06/12 08:42:53;;;;;;;11.27;4.93;;;25.10;92.90;;;;;;5107978;27;20196;-77
2023/06/12 08:45:20;;;;;;;8.77;4.78;;;25.10;92.50;;;;;;5114478;27;20489;-76
2023/06/12 08:47:49;;;;;;;12.10;5.05;;;25.00;92.80;;;;;;5100112;28;20048;-76
2023/06/12 08:50:19;;;;;;;8.32;5.18;;;25.10;92.50;;;;;;5126014;27;20396;-75
2023/06/12 08:52:52;;;;;;;13.25;4.78;;;25.20;92.30;;;;;;5106118;27;20500;-76
2023/06/12 08:55:20;;;;;;;11.90;5.18;;;25.20;92.20;;;;;;5086923;28;20122;-76
2023/06/12 08:57:47;;;;;;;;;;;25.20;92.50;;;;;;5084787;28;20090;-75
2023/06/12 09:00:13;;;;;;;14.52;4.97;;;25.30;91.40;;;;;;5112676;28;19924;-75
2023/06/12 09:03:06;;;;;;;10.85;4.80;;;25.30;92.00;;;;;;5082518;28;20047;-76
2023/06/12 09:05:34;;;;;;;9.25;5.20;;;25.40;92.20;;;;;;5094987;28;20064;-76
2023/06/12 09:08:01;;;;;;;12.40;4.97;;;25.50;92.00;;;;;;5107636;28;20612;-77
2023/06/12 09:10:27;;;;;;;;;;;25.70;91.40;;;;;;5080800;28;20048;-76
2023/06/12 09:12:57;;;;;;;8.65;4.28;;;25.70;90.30;;;;;;5072502;28;20354;-76
2023/06/12 09:15:23;;;;;;;12.00;4.72;;;25.70;90.00;;;;;;5099792;28;20054;-76
2023/06/12 09:17:56;;;;;;;11.38;5.10;;;25.70;89.40;;;;;;5062389;28;20127;-76
2023/06/12 09:20:33;;;;;;;10.95;4.38;;;25.80;88.40;;;;;;5107677;28;20044;-76
2023/06/12 09:23:00;;;;;;;12.55;4.47;;;25.80;88.70;;;;;;5113549;28;20469;-75
2023/06/12 09:25:43;;;;;;;9.50;4.20;;;26.00;87.50;;;;;;5085607;28;20044;-75
2023/06/12 09:28:10;;;;;;;11.50;4.70;;;26.10;86.40;;;;;;5094939;28;20047;-76
2023/06/12 09:30:40;;;;;;;10.88;5.22;;;26.10;87.00;;;;;;5083951;28;20857;-76
2023/06/12 09:33:08;;;;;;;13.35;4.43;;;26.30;86.60;;;;;;5076539;28;20521;-76
2023/06/12 09:35:52;;;;;;;6.88;4.22;;;26.30;86.30;;;;;;5097691;28;20036;-77
2023/06/12 09:38:18;;;;;;;9.57;5.05;;;26.30;85.70;;;;;;5096741;28;20045;-76
2023/06/12 09:40:44;;;;;;;12.32;5.38;;;26.30;85.60;;;;;;5082148;28;20039;-76
2023/06/12 09:43:16;;;;;;;8.25;5.05;;;26.30;86.30;;;;;;5097497;28;20040;-77
2023/06/12 09:45:48;;;;;;;12.82;5.03;;;26.40;85.70;;;;;;5087738;28;20105;-76
2023/06/12 09:48:14;;;;;;;21.05;6.38;;;26.50;85.70;;;;;;5094333;28;20490;-76
2023/06/12 09:50:40;;;;;;;8.77;4.53;;;26.60;86.10;;;;;;5097183;28;20132;-75
2023/06/12 09:53:07;;;;;;;11.40;5.18;;;26.60;85.80;;;;;;5075600;28;20405;-76
2023/06/12 09:55:36;;;;;;;9.65;5.13;;;26.70;86.30;;;;;;5095301;28;20044;-76
2023/06/12 09:58:05;;;;;;;10.30;4.97;;;26.80;85.00;;;;;;5106343;28;20035;-76
2023/06/12 10:00:31;;;;;;;11.25;4.80;;;26.90;84.60;;;;;;5094680;28;20047;-76
2023/06/12 10:03:01;;;;;;;8.18;4.60;;;27.00;85.00;;;;;;5080613;28;20040;-76
2023/06/12 10:05:42;;;;;;;10.23;5.35;;;27.10;84.90;;;;;;5090875;28;20112;-76
2023/06/12 10:08:09;;;;;;;8.60;4.68;;;27.10;85.90;;;;;;5105634;28;20050;-76
2023/06/12 10:10:35;;;;;;;12.15;4.60;;;27.20;85.30;;;;;;5110288;28;20138;-75
2023/06/12 10:13:03;;;;;;;7.53;4.70;;;27.30;84.70;;;;;;5107579;28;20086;-76
2023/06/12 10:15:32;;;;;;;10.88;4.70;;;27.30;84.20;;;;;;5099202;28;20685;-76
2023/06/12 10:17:58;;;;;;;6.65;4.25;;;27.40;81.90;;;;;;5096031;28;20395;-76
2023/06/12 10:20:25;;;;;;;10.05;4.30;;;27.50;83.00;;;;;;5094547;28;20036;-75
2023/06/12 10:22:54;;;;;;;9.43;4.65;;;27.60;83.10;;;;;;5086369;28;20048;-75
2023/06/12 10:25:20;;;;;;;8.02;4.32;;;27.80;83.40;;;;;;5108241;28;20446;-75
2023/06/12 10:27:47;;;;;;;8.57;4.60;;;27.90;83.00;;;;;;5127595;28;20035;-75
2023/06/12 10:30:16;;;;;;;10.65;4.78;;;28.10;82.50;;;;;;5129288;27;20555;-75
2023/06/12 10:32:43;;;;;;;6.65;4.60;;;28.10;81.30;;;;;;5093335;28;20032;-75
2023/06/12 10:35:09;;;;;;;6.93;3.88;;;28.20;79.70;;;;;;5096927;28;20031;-77
2023/06/12 10:37:45;;;;;;;8.35;4.38;;;28.40;79.40;;;;;;5080671;28;20100;-75
2023/06/12 10:40:15;;;;;;;11.93;5.43;;;28.60;78.10;;;;;;5097914;28;20493;-76
2023/06/12 10:42:42;;;;;;;10.50;4.40;;;28.60;77.30;;;;;;5106914;28;20131;-74
2023/06/12 10:45:22;;;;;;;8.68;4.70;;;28.80;76.90;;;;;;5118238;28;20131;-75
2023/06/12 10:48:03;;;;;;;9.27;4.60;;;29.10;76.60;;;;;;5099692;28;20040;-76
2023/06/12 10:50:43;;;;;;;9.13;5.30;;;29.30;77.80;;;;;;5065965;28;20077;-75
2023/06/12 10:53:14;;;;;;;9.93;4.68;;;29.40;77.00;;;;;;5087746;28;20047;-76
2023/06/12 10:55:44;;;;;;;6.43;4.80;;;29.50;76.90;;;;;;5084196;28;20054;-76
2023/06/12 10:58:15;;;;;;;9.30;4.72;;;29.80;77.10;;;;;;5102872;28;20092;-75
2023/06/12 11:00:52;;;;;;;16.98;5.43;;;29.80;76.90;;;;;;5110123;28;20124;-76
2023/06/12 11:03:25;;;;;;;9.38;5.03;;;30.00;77.30;;;;;;5092668;28;20044;-77
2023/06/12 11:06:08;;;;;;;7.80;4.88;;;30.10;76.30;;;;;;5116304;27;20442;-75
2023/06/12 11:08:34;;;;;;;9.43;4.95;;;30.20;76.10;;;;;;5103755;28;20511;-75
2023/06/12 11:11:06;;;;;;;14.00;4.82;;;30.10;75.90;;;;;;5101119;28;20123;-75
2023/06/12 11:13:32;;;;;;;10.55;5.13;;;30.20;76.10;;;;;;5084859;28;20055;-76
2023/06/12 11:15:57;;;;;;;13.60;5.60;;;30.40;76.50;;;;;;5091087;28;20040;-75
2023/06/12 11:18:23;;;;;;;10.63;5.18;;;30.50;75.10;;;;;;5105905;27;20032;-76
2023/06/12 11:20:55;;;;;;;10.95;5.05;;;30.40;74.30;;;;;;5108112;27;20032;-76
2023/06/12 11:23:26;;;;;;;8.85;5.20;;;30.20;73.80;;;;;;5082730;27;20042;-76
2023/06/12 11:25:54;;;;;;;9.43;5.88;;;30.20;73.70;;;;;;5093019;28;20122;-76
2023/06/12 11:28:20;;;;;;;8.07;4.97;;;30.30;73.30;;;;;;5095902;28;20042;-75
2023/06/12 11:30:50;;;;;;;8.85;5.68;;;30.40;73.30;;;;;;5109306;27;20051;-76
2023/06/12 11:33:17;;;;;;;6.03;4.70;;;30.50;72.70;;;;;;5102661;28;20089;-77
2023/06/12 11:35:45;;;;;;;6.80;5.03;;;30.80;73.00;;;;;;5104710;27;20036;-76
2023/06/12 11:38:21;;;;;;;7.57;4.85;;;31.00;72.70;;;;;;5107688;28;20051;-76
2023/06/12 11:40:47;;;;;;;8.27;5.55;;;31.10;70.80;;;;;;5116870;27;20052;-76
2023/06/12 11:43:16;;;;;;;7.68;4.88;;;31.20;70.40;;;;;;5098597;27;20062;-76
2023/06/12 11:45:43;;;;;;;8.70;4.93;;;31.30;69.80;;;;;;5065854;27;20058;-75
2023/06/12 11:48:16;;;;;;;8.93;4.88;;;31.30;71.10;;;;;;5099629;27;20063;-75
2023/06/12 11:50:49;;;;;;;9.43;5.20;;;31.50;69.80;;;;;;5120633;27;20045;-76
2023/06/12 11:53:17;;;;;;;8.27;4.70;;;31.50;69.00;;;;;;5107254;27;20097;-74
2023/06/12 11:55:57;;;;;;;14.63;5.00;;;31.60;67.40;;;;;;5105741;28;20090;-75
2023/06/12 11:58:41;;;;;;;9.90;5.22;;;31.40;66.70;;;;;;5102719;28;20148;-76
2023/06/12 12:01:22;;;;;;;8.95;5.10;;;31.30;66.80;;;;;;5102892;28;20047;-76
2023/06/12 12:03:48;;;;;;;10.82;5.40;;;31.30;67.50;;;;;;5117414;27;20050;-78
2023/06/12 12:06:15;;;;;;;18.48;5.95;;;31.20;67.20;;;;;;5099605;28;20039;-76
2023/06/12 12:08:42;;;;;;;10.77;5.50;;;31.20;67.70;;;;;;5106430;28;20073;-74
2023/06/12 12:11:18;;;;;;;6.18;5.07;;;31.30;67.60;;;;;;5102799;28;20046;-75
2023/06/12 12:13:52;;;;;;;7.72;4.80;;;31.40;66.90;;;;;;5117178;27;20122;-75
2023/06/12 12:16:26;;;;;;;9.90;4.78;;;31.50;67.50;;;;;;5117837;28;20050;-75
2023/06/12 12:18:52;;;;;;;8.35;5.13;;;31.50;67.50;;;;;;5083260;28;20394;-74
2023/06/12 12:21:18;;;;;;;7.20;4.97;;;31.50;66.80;;;;;;5086550;28;20044;-74
2023/06/12 12:23:45;;;;;;;6.97;4.95;;;31.40;65.80;;;;;;5086339;28;20051;-76
2023/06/12 12:26:14;;;;;;;10.13;5.25;;;31.50;65.80;;;;;;5116938;27;20135;-76
2023/06/12 12:28:39;;;;;;;8.18;5.55;;;31.40;65.70;;;;;;5134082;27;20040;-75
2023/06/12 12:31:05;;;;;;;16.70;5.15;;;31.40;65.60;;;;;;5098389;27;20063;-76
2023/06/12 12:33:31;;;;;;;7.53;4.97;;;31.30;64.80;;;;;;5111274;27;20036;-75
2023/06/12 12:36:00;;;;;;;12.60;5.32;;;31.50;65.70;;;;;;5081819;28;20114;-75
2023/06/12 12:38:26;;;;;;;9.38;5.03;;;31.50;64.70;;;;;;5108551;28;20046;-75
2023/06/12 12:40:52;;;;;;;5.97;5.10;;;31.50;65.60;;;;;;5112047;27;20054;-75
2023/06/12 12:43:20;;;;;;;11.57;5.68;;;31.70;64.80;;;;;;5064318;28;20040;-74
2023/06/12 12:45:45;;;;;;;13.73;4.88;;;31.40;64.00;;;;;;5118491;27;20054;-76
2023/06/12 12:48:11;;;;;;;8.75;4.78;;;31.40;64.50;;;;;;5128744;27;20032;-76